createdAt,value
2017-07-21T00:01:54.336Z,18.00
2017-07-21T00:04:20.368Z,18.00
2017-07-21T00:06:47.130Z,18.00
2017-07-21T00:09:13.161Z,17.90
2017-07-21T00:11:39.184Z,17.90
2017-07-21T00:14:05.232Z,17.90
2017-07-21T00:16:31.276Z,17.90
2017-07-21T00:18:57.292Z,17.90
2017-07-21T00:21:23.328Z,17.90
2017-07-21T00:23:49.336Z,18.00
2017-07-21T00:29:12.858Z,17.90
2017-07-21T00:31:38.882Z,18.00
2017-07-21T00:34:04.929Z,18.10
2017-07-21T00:36:30.965Z,18.10
2017-07-21T00:38:56.990Z,18.20
2017-07-21T00:41:23.033Z,18.30
2017-07-21T00:43:49.063Z,18.30
2017-07-21T00:46:15.177Z,18.30
2017-07-21T00:48:41.297Z,18.30
2017-07-21T00:51:07.344Z,18.50
2017-07-21T00:53:33.414Z,18.50
2017-07-21T00:55:59.447Z,18.60
2017-07-21T00:58:25.498Z,18.60
2017-07-21T01:00:52.272Z,18.60
2017-07-21T01:03:18.310Z,18.60
2017-07-21T01:05:44.338Z,18.60
2017-07-21T01:08:11.127Z,18.70
2017-07-21T01:10:37.154Z,18.60
2017-07-21T01:13:03.185Z,18.60
2017-07-21T01:15:29.974Z,18.60
2017-07-21T01:17:56.010Z,18.60
2017-07-21T01:20:22.054Z,18.70
2017-07-21T01:22:48.161Z,18.70
2017-07-21T01:25:14.221Z,18.70
2017-07-21T01:27:40.254Z,18.80
2017-07-21T01:30:06.279Z,18.70
2017-07-21T01:32:32.314Z,18.70
2017-07-21T01:34:58.377Z,18.70
2017-07-21T01:37:25.157Z,18.80
2017-07-21T01:39:51.194Z,18.80
2017-07-21T01:42:17.249Z,18.80
2017-07-21T01:44:43.290Z,18.80
2017-07-21T01:47:09.326Z,18.80
2017-07-21T01:49:35.362Z,18.80
2017-07-21T01:52:02.142Z,18.80
2017-07-21T01:54:28.174Z,18.70
2017-07-21T01:56:54.210Z,18.80
2017-07-21T01:59:20.263Z,18.80
2017-07-21T02:01:46.305Z,18.70
2017-07-21T02:04:12.339Z,18.70
2017-07-21T02:06:38.397Z,18.70
2017-07-21T02:09:04.438Z,18.60
2017-07-21T02:11:31.214Z,18.50
2017-07-21T02:13:57.261Z,18.50
2017-07-21T02:16:23.337Z,18.50
2017-07-21T02:18:49.377Z,18.50
2017-07-21T02:21:15.413Z,18.50
2017-07-21T02:23:48.241Z,18.60
2017-07-21T02:26:14.273Z,18.60
2017-07-21T02:28:40.311Z,18.50
2017-07-21T02:31:06.335Z,18.50
2017-07-21T02:33:32.405Z,18.50
2017-07-21T02:35:59.187Z,18.30
2017-07-21T02:38:25.232Z,18.30
2017-07-21T02:40:51.258Z,18.30
2017-07-21T02:43:17.378Z,18.20
2017-07-21T02:45:43.393Z,18.30
2017-07-21T02:48:09.442Z,18.40
2017-07-21T02:50:35.485Z,18.30
2017-07-21T02:53:01.510Z,18.30
2017-07-21T02:55:28.294Z,18.10
2017-07-21T02:57:54.334Z,18.10
2017-07-21T03:00:21.109Z,18.00
2017-07-21T03:02:47.150Z,18.00
2017-07-21T03:05:13.181Z,18.00
2017-07-21T03:07:39.985Z,18.10
2017-07-21T03:10:06.022Z,18.00
2017-07-21T03:12:32.058Z,18.10
2017-07-21T03:14:58.091Z,18.10
2017-07-21T03:17:24.121Z,18.10
2017-07-21T03:19:50.185Z,18.10
2017-07-21T03:22:16.210Z,18.10
2017-07-21T03:24:42.286Z,18.00
2017-07-21T03:27:08.329Z,18.00
2017-07-21T03:29:34.406Z,17.80
2017-07-21T03:32:00.445Z,17.80
2017-07-21T03:34:26.490Z,17.80
2017-07-21T03:36:52.525Z,17.70
2017-07-21T03:39:18.560Z,17.70
2017-07-21T03:41:44.619Z,17.70
2017-07-21T03:44:11.442Z,17.60
2017-07-21T03:46:37.479Z,17.60
2017-07-21T03:49:03.502Z,17.50
2017-07-21T03:51:29.617Z,17.40
2017-07-21T03:53:55.658Z,17.40
2017-07-21T03:56:21.700Z,17.40
2017-07-21T03:58:48.490Z,17.20
2017-07-21T04:01:15.325Z,17.20
2017-07-21T04:03:41.366Z,17.20
2017-07-21T04:06:07.392Z,17.20
2017-07-21T04:08:40.531Z,17.30
2017-07-21T04:11:06.578Z,17.20
2017-07-21T04:13:32.625Z,17.10
2017-07-21T04:15:58.675Z,17.10
2017-07-21T04:18:25.454Z,17.10
2017-07-21T04:20:51.483Z,17.10
2017-07-21T04:23:17.548Z,17.20
2017-07-21T04:25:43.605Z,17.20
2017-07-21T04:28:09.646Z,17.20
2017-07-21T04:30:35.677Z,17.20
2017-07-21T04:33:01.718Z,17.30
2017-07-21T04:35:27.750Z,17.30
2017-07-21T04:37:53.781Z,17.30
2017-07-21T04:40:19.833Z,17.30
2017-07-21T04:42:45.867Z,17.50
2017-07-21T04:45:11.902Z,17.60
2017-07-21T04:47:37.937Z,17.60
2017-07-21T04:50:04.044Z,17.50
2017-07-21T04:52:30.082Z,17.50
2017-07-21T04:54:56.134Z,17.50
2017-07-21T04:57:22.174Z,17.50
2017-07-21T04:59:48.209Z,17.50
2017-07-21T05:02:14.257Z,17.30
2017-07-21T05:04:41.039Z,17.20
2017-07-21T05:07:07.190Z,17.20
2017-07-21T05:09:33.390Z,17.10
2017-07-21T05:12:00.193Z,17.20
2017-07-21T05:14:26.265Z,17.20
2017-07-21T05:16:52.307Z,17.20
2017-07-21T05:19:18.330Z,17.10
2017-07-21T05:21:44.381Z,17.10
2017-07-21T05:24:10.413Z,17.10
2017-07-21T05:26:36.442Z,17.00
2017-07-21T05:29:02.467Z,17.00
2017-07-21T05:31:28.511Z,17.10
2017-07-21T05:33:55.290Z,17.10
2017-07-21T05:36:21.325Z,17.00
2017-07-21T05:38:47.419Z,17.10
2017-07-21T05:41:14.241Z,17.20
2017-07-21T05:43:40.290Z,17.10
2017-07-21T05:46:07.055Z,17.20
2017-07-21T05:48:33.097Z,17.10
2017-07-21T05:50:59.114Z,17.20
2017-07-21T05:53:25.162Z,17.30
2017-07-21T05:55:51.218Z,17.50
2017-07-21T05:58:17.238Z,17.60
2017-07-21T06:00:43.277Z,17.70
2017-07-21T06:03:09.317Z,17.80
2017-07-21T06:05:35.370Z,17.80
2017-07-21T06:08:02.159Z,17.80
2017-07-21T06:10:28.209Z,17.80
2017-07-21T06:12:54.234Z,17.80
2017-07-21T06:15:20.274Z,17.90
2017-07-21T06:17:46.310Z,18.00
2017-07-21T06:20:12.358Z,18.10
2017-07-21T06:22:39.126Z,18.40
2017-07-21T06:25:05.161Z,18.30
2017-07-21T06:27:31.225Z,18.20
2017-07-21T06:29:57.291Z,18.10
2017-07-21T06:32:24.093Z,18.00
2017-07-21T06:34:50.149Z,18.00
2017-07-21T06:37:16.183Z,18.00
2017-07-21T06:39:42.226Z,17.90
2017-07-21T06:42:08.266Z,17.90
2017-07-21T06:44:42.181Z,17.90
2017-07-21T06:47:08.222Z,17.90
2017-07-21T06:49:34.254Z,17.80
2017-07-21T06:52:00.285Z,18.00
2017-07-21T06:54:27.085Z,18.10
2017-07-21T06:56:53.123Z,18.10
2017-07-21T06:59:19.894Z,18.10
2017-07-21T07:01:45.946Z,18.10
2017-07-21T07:04:11.994Z,18.30
2017-07-21T07:06:38.053Z,18.50
2017-07-21T07:09:04.115Z,18.80
2017-07-21T07:11:30.165Z,19.00
2017-07-21T07:13:56.185Z,19.20
2017-07-21T07:16:22.990Z,19.30
2017-07-21T07:18:49.034Z,19.20
2017-07-21T07:21:15.089Z,19.10
2017-07-21T07:23:41.126Z,19.20
2017-07-21T07:26:07.182Z,19.30
2017-07-21T07:28:33.242Z,19.50
2017-07-21T07:30:59.265Z,19.60
2017-07-21T07:33:26.050Z,19.90
2017-07-21T07:35:52.077Z,19.90
2017-07-21T07:38:18.112Z,19.90
2017-07-21T07:40:44.135Z,19.70
2017-07-21T07:43:10.905Z,19.80
2017-07-21T07:45:36.950Z,19.80
2017-07-21T07:48:03.029Z,20.00
2017-07-21T07:50:29.077Z,19.90
2017-07-21T07:52:56.341Z,20.10
2017-07-21T07:55:22.438Z,20.00
2017-07-21T07:57:49.206Z,20.20
2017-07-21T08:00:15.241Z,20.20
2017-07-21T08:02:41.269Z,20.30
2017-07-21T08:05:08.046Z,20.70
2017-07-21T08:07:34.074Z,20.60
2017-07-21T08:10:00.114Z,20.90
2017-07-21T08:12:26.881Z,21.00
2017-07-21T08:14:52.933Z,20.90
2017-07-21T08:17:18.953Z,21.10
2017-07-21T08:19:45.005Z,21.10
2017-07-21T08:22:11.041Z,21.00
2017-07-21T08:24:37.065Z,21.20
2017-07-21T08:27:03.098Z,21.30
2017-07-21T08:29:29.877Z,21.00
2017-07-21T08:31:55.938Z,21.00
2017-07-21T08:34:21.961Z,20.80
2017-07-21T08:36:47.994Z,21.00
2017-07-21T08:39:14.013Z,21.10
2017-07-21T08:41:40.038Z,20.80
2017-07-21T08:44:06.078Z,20.90
2017-07-21T08:46:32.849Z,21.30
2017-07-21T08:48:58.918Z,21.30
2017-07-21T08:51:25.702Z,21.60
2017-07-21T08:53:51.730Z,21.50
2017-07-21T08:56:17.758Z,21.70
2017-07-21T08:58:43.797Z,21.80
2017-07-21T09:01:09.822Z,21.90
2017-07-21T09:03:35.873Z,22.00
2017-07-21T09:06:02.679Z,22.30
2017-07-21T09:08:28.749Z,22.20
2017-07-21T09:10:54.778Z,22.30
2017-07-21T09:13:20.818Z,22.20
2017-07-21T09:15:47.594Z,22.20
2017-07-21T09:18:13.657Z,22.20
2017-07-21T09:20:39.703Z,22.30
2017-07-21T09:23:05.773Z,22.40
2017-07-21T09:25:31.799Z,22.60
2017-07-21T09:27:58.588Z,22.80
2017-07-21T09:30:24.622Z,22.70
2017-07-21T09:32:51.421Z,23.00
2017-07-21T09:35:17.453Z,23.00
2017-07-21T09:37:43.486Z,23.00
2017-07-21T09:40:10.261Z,23.30
2017-07-21T09:42:36.295Z,23.30
2017-07-21T09:45:02.350Z,23.30
2017-07-21T09:47:28.377Z,23.30
2017-07-21T09:49:54.434Z,23.20
2017-07-21T09:52:21.207Z,23.60
2017-07-21T09:54:47.246Z,23.60
2017-07-21T09:57:13.286Z,23.70
2017-07-21T09:59:39.318Z,23.60
2017-07-21T10:02:05.354Z,23.30
2017-07-21T10:04:32.117Z,24.10
2017-07-21T10:06:58.142Z,24.10
2017-07-21T10:09:24.169Z,25.50
2017-07-21T10:11:50.229Z,26.80
2017-07-21T10:14:17.002Z,27.60
2017-07-21T10:16:43.045Z,27.60
2017-07-21T10:19:09.070Z,28.10
2017-07-21T10:21:35.122Z,27.60
2017-07-21T10:24:01.142Z,26.80
2017-07-21T10:26:27.170Z,26.30
2017-07-21T10:28:53.194Z,25.80
2017-07-21T10:31:19.217Z,25.20
2017-07-21T10:33:45.250Z,24.50
2017-07-21T10:36:11.306Z,24.20
2017-07-21T10:38:37.351Z,24.10
2017-07-21T10:41:04.143Z,26.50
2017-07-21T10:43:30.175Z,26.50
2017-07-21T10:45:56.197Z,27.20
2017-07-21T10:48:22.978Z,27.80
2017-07-21T10:50:49.002Z,27.70
2017-07-21T10:53:15.030Z,27.70
2017-07-21T10:55:41.081Z,27.30
2017-07-21T10:58:07.152Z,27.00
2017-07-21T11:00:33.965Z,27.10
2017-07-21T11:02:59.993Z,27.10
2017-07-21T11:05:26.793Z,26.60
2017-07-21T11:07:52.825Z,26.60
2017-07-21T11:10:19.606Z,25.90
2017-07-21T11:12:45.633Z,25.90
2017-07-21T11:15:11.698Z,25.70
2017-07-21T11:17:37.738Z,25.40
2017-07-21T11:20:03.789Z,25.10
2017-07-21T11:22:30.586Z,24.80
2017-07-21T11:24:56.642Z,24.80
2017-07-21T11:27:22.682Z,25.20
2017-07-21T11:29:48.705Z,26.50
2017-07-21T11:32:14.745Z,27.70
2017-07-21T11:34:40.772Z,28.00
2017-07-21T11:37:06.818Z,27.90
2017-07-21T11:39:32.841Z,28.80
2017-07-21T11:41:58.897Z,30.30
2017-07-21T11:44:25.666Z,31.30
2017-07-21T11:46:51.706Z,31.20
2017-07-21T11:49:17.742Z,30.30
2017-07-21T11:51:43.794Z,29.50
2017-07-21T11:54:09.826Z,29.10
2017-07-21T11:56:35.865Z,29.90
2017-07-21T11:59:01.914Z,31.30
2017-07-21T12:01:27.950Z,32.50
2017-07-21T12:03:54.017Z,33.50
2017-07-21T12:06:20.058Z,33.10
2017-07-21T12:08:46.114Z,32.70
2017-07-21T12:11:12.171Z,32.80
2017-07-21T12:13:38.221Z,33.70
2017-07-21T12:16:04.991Z,35.00
2017-07-21T12:18:31.021Z,34.90
2017-07-21T12:20:57.073Z,34.60
2017-07-21T12:23:23.118Z,33.90
2017-07-21T12:25:49.157Z,32.90
2017-07-21T12:28:15.178Z,31.90
2017-07-21T12:30:41.210Z,30.90
2017-07-21T12:33:07.231Z,30.60
2017-07-21T12:35:33.299Z,31.20
2017-07-21T12:37:59.338Z,32.10
2017-07-21T12:40:25.400Z,32.50
2017-07-21T12:42:51.476Z,31.80
2017-07-21T12:45:17.498Z,32.20
2017-07-21T12:50:11.301Z,32.30
2017-07-21T12:52:38.078Z,32.50
2017-07-21T12:55:04.113Z,32.50
2017-07-21T12:57:30.178Z,32.20
2017-07-21T12:59:56.234Z,31.40
2017-07-21T13:02:22.301Z,30.80
2017-07-21T13:04:48.325Z,30.00
2017-07-21T13:07:14.350Z,29.50
2017-07-21T13:09:40.414Z,29.20
2017-07-21T13:12:06.462Z,29.00
2017-07-21T13:14:32.485Z,28.90
2017-07-21T13:16:58.510Z,28.90
2017-07-21T13:19:24.541Z,29.40
2017-07-21T13:21:50.586Z,29.30
2017-07-21T13:24:16.642Z,29.30
2017-07-21T13:26:43.430Z,30.60
2017-07-21T13:29:09.465Z,30.60
2017-07-21T13:31:35.482Z,31.20
2017-07-21T13:34:01.513Z,31.70
2017-07-21T13:36:27.546Z,32.10
2017-07-21T13:38:53.592Z,32.80
2017-07-21T13:41:19.641Z,33.70
2017-07-21T13:43:45.679Z,34.30
2017-07-21T13:46:11.714Z,34.70
2017-07-21T13:48:37.762Z,35.30
2017-07-21T13:51:03.798Z,35.80
2017-07-21T13:53:29.830Z,35.20
2017-07-21T13:55:55.866Z,34.20
2017-07-21T13:58:21.894Z,33.90
2017-07-21T14:00:47.961Z,33.60
2017-07-21T14:03:14.021Z,32.60
2017-07-21T14:05:40.062Z,32.60
2017-07-21T14:08:06.121Z,33.30
2017-07-21T14:10:32.959Z,34.60
2017-07-21T14:12:58.993Z,34.60
2017-07-21T14:15:25.053Z,34.70
2017-07-21T14:17:51.102Z,34.20
2017-07-21T14:20:17.161Z,34.20
2017-07-21T14:22:43.210Z,34.30
2017-07-21T14:25:09.256Z,35.00
2017-07-21T14:27:35.296Z,35.50
2017-07-21T14:30:01.319Z,35.40
2017-07-21T14:32:28.381Z,34.50
2017-07-21T14:34:54.429Z,34.50
2017-07-21T14:37:20.509Z,34.00
2017-07-21T14:39:46.598Z,33.10
2017-07-21T14:42:13.506Z,31.20
2017-07-21T14:44:41.028Z,30.20
2017-07-21T14:47:07.071Z,30.20
2017-07-21T14:49:33.864Z,29.30
2017-07-21T14:51:59.937Z,29.20
2017-07-21T14:54:25.980Z,29.30
2017-07-21T14:56:52.023Z,28.90
2017-07-21T14:59:18.073Z,28.40
2017-07-21T15:01:44.858Z,28.10
2017-07-21T15:04:11.645Z,27.90
2017-07-21T15:06:37.677Z,27.90
2017-07-21T15:09:03.710Z,27.80
2017-07-21T15:11:29.738Z,27.50
2017-07-21T15:13:55.782Z,27.20
2017-07-21T15:16:21.817Z,27.00
2017-07-21T15:18:47.853Z,26.70
2017-07-21T15:21:13.866Z,26.70
2017-07-21T15:23:39.906Z,26.60
2017-07-21T15:26:05.952Z,26.40
2017-07-21T15:28:32.719Z,26.30
2017-07-21T15:30:58.781Z,26.30
2017-07-21T15:33:24.810Z,26.20
2017-07-21T15:35:51.611Z,25.90
2017-07-21T15:38:17.647Z,25.90
2017-07-21T15:40:43.701Z,25.90
2017-07-21T15:43:09.738Z,25.80
2017-07-21T15:45:35.761Z,25.80
2017-07-21T15:48:02.525Z,25.60
2017-07-21T15:50:28.593Z,25.60
2017-07-21T15:52:55.397Z,25.50
2017-07-21T15:55:21.446Z,25.50
2017-07-21T15:57:47.494Z,25.50
2017-07-21T16:00:13.544Z,25.60
2017-07-21T16:02:40.349Z,25.50
2017-07-21T16:05:06.377Z,25.50
2017-07-21T16:07:32.425Z,25.50
2017-07-21T16:09:58.478Z,25.50
2017-07-21T16:12:24.510Z,25.50
2017-07-21T16:14:51.277Z,25.50
2017-07-21T16:17:17.341Z,25.40
2017-07-21T16:19:44.125Z,25.30
2017-07-21T16:22:10.190Z,25.30
2017-07-21T16:24:36.209Z,25.30
2017-07-21T16:27:02.233Z,25.20
2017-07-21T16:29:28.266Z,25.30
2017-07-21T16:31:54.282Z,25.60
2017-07-21T16:34:20.345Z,26.60
2017-07-21T16:36:46.380Z,27.50
2017-07-21T16:39:12.413Z,27.70
2017-07-21T16:41:38.459Z,27.80
2017-07-21T16:44:05.249Z,27.90
2017-07-21T16:46:31.272Z,27.90
2017-07-21T16:48:57.302Z,28.20
2017-07-21T16:51:23.334Z,28.10
2017-07-21T16:53:49.362Z,27.90
2017-07-21T16:56:15.409Z,27.30
2017-07-21T16:58:41.434Z,26.90
2017-07-21T17:01:08.222Z,26.20
2017-07-21T17:03:34.254Z,26.20
2017-07-21T17:06:01.030Z,25.70
2017-07-21T17:08:27.069Z,25.60
2017-07-21T17:10:53.101Z,25.40
2017-07-21T17:13:19.901Z,25.00
2017-07-21T17:15:45.927Z,24.90
2017-07-21T17:18:11.959Z,24.80
2017-07-21T17:20:38.733Z,24.60
2017-07-21T17:23:05.514Z,24.50
2017-07-21T17:25:32.284Z,24.40
2017-07-21T17:27:58.329Z,24.40
2017-07-21T17:30:24.355Z,24.30
2017-07-21T17:32:50.405Z,24.20
2017-07-21T17:35:16.521Z,24.10
2017-07-21T17:37:42.545Z,24.00
2017-07-21T17:40:08.574Z,24.00
2017-07-21T17:42:34.595Z,23.90
2017-07-21T17:45:00.630Z,23.80
2017-07-21T17:47:26.738Z,23.60
2017-07-21T17:49:52.781Z,23.50
2017-07-21T17:52:18.830Z,23.30
2017-07-21T17:54:45.621Z,23.20
2017-07-21T17:57:11.658Z,23.20
2017-07-21T17:59:38.437Z,23.00
2017-07-21T18:02:04.459Z,23.00
2017-07-21T18:04:30.482Z,22.90
2017-07-21T18:06:56.549Z,22.90
2017-07-21T18:09:22.585Z,22.80
2017-07-21T18:11:49.360Z,22.70
2017-07-21T18:14:15.377Z,22.70
2017-07-21T18:16:41.433Z,22.60
2017-07-21T18:19:07.466Z,22.50
2017-07-21T18:21:33.499Z,22.40
2017-07-21T18:23:59.639Z,22.40
2017-07-21T18:26:25.657Z,22.30
2017-07-21T18:28:51.687Z,22.20
2017-07-21T18:31:17.730Z,22.20
2017-07-21T18:33:44.500Z,22.00
2017-07-21T18:36:10.574Z,22.00
2017-07-21T18:38:36.625Z,22.10
2017-07-21T18:41:02.651Z,22.00
2017-07-21T18:43:43.665Z,21.80
2017-07-21T18:46:09.723Z,21.80
2017-07-21T18:48:36.525Z,21.70
2017-07-21T18:51:02.606Z,21.60
2017-07-21T18:53:28.766Z,21.60
2017-07-21T18:55:54.787Z,21.50
2017-07-21T18:58:21.578Z,21.40
2017-07-21T19:00:47.628Z,21.40
2017-07-21T19:03:14.514Z,21.20
2017-07-21T19:05:40.724Z,21.20
2017-07-21T19:08:06.807Z,21.10
2017-07-21T19:10:33.093Z,21.00
2017-07-21T19:12:59.884Z,20.90
2017-07-21T19:15:25.953Z,20.90
2017-07-21T19:17:52.065Z,20.90
2017-07-21T19:20:18.130Z,20.80
2017-07-21T19:22:44.202Z,20.70
2017-07-21T19:25:10.250Z,20.70
2017-07-21T19:27:36.274Z,20.60
2017-07-21T19:30:02.306Z,20.60
2017-07-21T19:32:28.377Z,20.50
2017-07-21T19:34:55.270Z,20.30
2017-07-21T19:37:21.381Z,20.30
2017-07-21T19:39:47.570Z,20.30
2017-07-21T19:42:13.606Z,20.30
2017-07-21T19:44:39.662Z,20.20
2017-07-21T19:47:06.513Z,20.10
2017-07-21T19:49:32.569Z,20.10
2017-07-21T19:51:58.679Z,20.10
2017-07-21T19:54:24.822Z,20.00
2017-07-21T19:56:51.619Z,19.90
2017-07-21T19:59:17.648Z,19.90
2017-07-21T20:01:44.433Z,19.80
2017-07-21T20:04:10.661Z,19.80
2017-07-21T20:06:36.757Z,19.70
2017-07-21T20:09:02.794Z,19.60
2017-07-21T20:11:35.905Z,19.60
2017-07-21T20:14:02.674Z,19.60
2017-07-21T20:16:28.862Z,19.50
2017-07-21T20:18:55.009Z,19.50
2017-07-21T20:21:21.079Z,19.40
2017-07-21T20:23:47.225Z,19.40
2017-07-21T20:26:13.270Z,19.30
2017-07-21T20:28:39.422Z,19.30
2017-07-21T20:31:05.462Z,19.30
2017-07-21T20:33:31.720Z,19.30
2017-07-21T20:35:57.857Z,19.30
2017-07-21T20:38:24.142Z,19.30
2017-07-21T20:40:50.176Z,19.20
2017-07-21T20:43:16.214Z,19.10
2017-07-21T20:45:42.290Z,19.10
2017-07-21T20:48:08.338Z,19.10
2017-07-21T20:50:34.393Z,19.00
2017-07-21T20:53:00.427Z,19.00
2017-07-21T20:55:26.577Z,19.00
2017-07-21T20:57:52.611Z,19.00
2017-07-21T21:00:19.689Z,19.00
2017-07-21T21:02:45.750Z,18.90
2017-07-21T21:05:12.550Z,18.90
2017-07-21T21:07:38.669Z,18.90
2017-07-21T21:10:05.762Z,18.80
2017-07-21T21:12:31.942Z,18.80
2017-07-21T21:14:58.163Z,18.80
2017-07-21T21:17:24.308Z,18.70
2017-07-21T21:19:50.360Z,18.80
2017-07-21T21:22:17.138Z,18.80
2017-07-21T21:24:43.238Z,18.70
2017-07-21T21:27:09.254Z,18.70
2017-07-21T21:29:35.277Z,18.70
2017-07-21T21:32:01.321Z,18.70
2017-07-21T21:34:28.113Z,18.70
2017-07-21T21:36:54.174Z,18.70
2017-07-21T21:39:20.199Z,18.70
2017-07-21T21:41:46.253Z,18.70
2017-07-21T21:44:12.273Z,18.70
2017-07-21T21:46:38.310Z,18.80
2017-07-21T21:49:04.353Z,18.80
2017-07-21T21:51:30.428Z,18.80
2017-07-21T21:53:56.518Z,18.80
2017-07-21T21:56:23.293Z,18.90
2017-07-21T21:58:49.333Z,18.80
2017-07-21T22:01:15.371Z,18.80
2017-07-21T22:03:42.153Z,18.80
2017-07-21T22:06:08.197Z,18.80
2017-07-21T22:08:35.000Z,18.70
2017-07-21T22:11:01.033Z,18.70
2017-07-21T22:13:27.818Z,18.70
2017-07-21T22:15:53.846Z,18.60
2017-07-21T22:18:19.894Z,18.60
2017-07-21T22:20:45.941Z,18.60
2017-07-21T22:23:11.986Z,18.60
2017-07-21T22:25:38.021Z,18.50
2017-07-21T22:28:04.051Z,18.50
2017-07-21T22:30:30.085Z,18.50
2017-07-21T22:32:56.114Z,18.50
2017-07-21T22:35:22.915Z,18.40
2017-07-21T22:37:48.981Z,18.40
2017-07-21T22:40:15.019Z,18.40
2017-07-21T22:42:41.045Z,18.40
2017-07-21T22:45:07.078Z,18.30
2017-07-21T22:47:33.858Z,18.30
2017-07-21T22:49:59.902Z,18.30
2017-07-21T22:52:25.934Z,18.30
2017-07-21T22:54:52.791Z,18.40
2017-07-21T22:57:18.846Z,18.30
2017-07-21T22:59:44.885Z,18.40
2017-07-21T23:02:11.666Z,18.40
2017-07-21T23:04:37.758Z,18.40
2017-07-21T23:07:03.810Z,18.40
2017-07-21T23:09:29.864Z,18.40
2017-07-21T23:11:55.906Z,18.40
2017-07-21T23:14:21.967Z,18.40
2017-07-21T23:16:48.058Z,18.40
2017-07-21T23:19:14.834Z,18.30
2017-07-21T23:21:40.889Z,18.30
2017-07-21T23:24:06.930Z,18.30
2017-07-21T23:26:32.959Z,18.30
2017-07-21T23:28:58.990Z,18.30
2017-07-21T23:31:25.034Z,18.30
2017-07-21T23:33:51.810Z,18.10
2017-07-21T23:36:17.862Z,18.10
2017-07-21T23:38:44.665Z,18.10
2017-07-21T23:41:10.719Z,18.10
2017-07-21T23:43:36.766Z,18.00
2017-07-21T23:46:02.842Z,18.00
2017-07-21T23:48:28.898Z,18.00
2017-07-21T23:50:54.925Z,18.00
2017-07-21T23:53:21.721Z,18.00
2017-07-21T23:55:47.753Z,17.90
2017-07-21T23:58:13.775Z,17.90
